Accueil
METAR-TAF:

METAR-TAF

Aéroports :

Aérodrome de M'fuwe

Mfuwe, Zambie

latitude: 13-15-32S, longitude: 031-56-12E, altitude: 573 m

METAR: absent

Heure: 11:58 (09:58 UTC)

Prévision

Le bulletin a été fait il y a 5 heures et 58 minutes, à 04:00 UTC
Prévision valable du 30 à 06 UTC au 31 à 12 UTC
Vent 5 kt de est/sud-est
Visibilité 10 km ou plus
Nuages épars à une hauteur de 2500 ft
Evoluant progressivement
du 30 à 09 UTC au 30 à 11 UTC
Nuages fragmentés à une hauteur de 4000 ft, Cumulus congestus.
Probabilité 30% :
Temporairement
du 30 à 12 UTC au 30 à 15 UTC
Vent 8 kt de sud
Visibilité: 9000 m
Quelques nuages à une hauteur de 4500 ft, Cumulonimbus.
(faible) averses
Evoluant progressivement
du 30 à 17 UTC au 30 à 19 UTC
Vent 3 kt de direction variable

TAF: FLMF 300400Z 3006/3112 12005KT 9999 SCT025 BECMG 3009/3011 BKN040TCU PROB30 TEMPO 3012/3015 17008KT 9000 -SH FEW045CB BECMG 3017/3019 VRB03KT NSW

Observations et prévisions météorologiques de plus de 4000 aéroports (messages METAR et TAF).

Les stations disponibles sont représentées par des disques jaunes et rouges sur la carte.

Passer la souris dessus pour voir le nom de la station.

Cliquer dessus pour voir les observations et prévisions météorologiques.

Pour changer de carte: cliquez sur les boutons verts avec une croix noire pour zoomer, sur le bouton vert avec un tiret pour effectuer un zoom arrière, ou sur les flèches vertes pour les cartes adjacentes.


METAR-TAF: